Time,TemperatureF,DewpointF,PressureIn,WindDirection,WindDirectionDegrees,WindSpeedMPH,WindSpeedGustMPH,Humidity,HourlyPrecipIn,Conditions,Clouds,dailyrainin,SoftwareType,DateUTC
2013-03-16 00:00:00,54.1,45.7,29.66,East,90,0.0,0.0,73,0.00,,,0.00,VWS V14.01,2013-03-16 05:00:00,
2013-03-16 00:05:00,53.9,45.8,29.65,East,90,0.0,0.0,74,0.00,,,0.00,VWS V14.01,2013-03-16 05:05:00,
2013-03-16 00:10:00,53.6,45.5,29.65,East,90,0.0,0.0,74,0.00,,,0.00,VWS V14.01,2013-03-16 05:10:00,
2013-03-16 00:15:00,53.5,45.8,29.66,East,90,0.0,0.0,75,0.00,,,0.00,VWS V14.01,2013-03-16 05:15:00,
2013-03-16 00:20:00,53.7,46.0,29.65,East,90,0.0,0.0,75,0.00,,,0.00,VWS V14.01,2013-03-16 05:20:00,
2013-03-16 00:25:00,53.9,45.8,29.65,East,90,0.0,0.0,74,0.00,,,0.00,VWS V14.01,2013-03-16 05:25:00,
2013-03-16 00:30:00,54.0,45.5,29.65,East,90,0.0,0.0,73,0.00,,,0.00,VWS V14.01,2013-03-16 05:30:00,
2013-03-16 00:35:00,53.9,45.8,29.65,East,90,0.0,0.0,74,0.00,,,0.00,VWS V14.01,2013-03-16 05:35:00,
2013-03-16 00:40:00,53.7,45.6,29.65,East,90,0.0,0.0,74,0.00,,,0.00,VWS V14.01,2013-03-16 05:40:00,
2013-03-16 00:45:00,53.4,45.3,29.64,East,90,0.0,0.0,74,0.00,,,0.00,VWS V14.01,2013-03-16 05:45:00,
2013-03-16 00:50:00,53.1,45.4,29.64,East,90,0.0,0.0,75,0.00,,,0.00,VWS V14.01,2013-03-16 05:50:00,
2013-03-16 00:55:00,52.9,45.5,29.64,East,90,0.0,0.0,76,0.00,,,0.00,VWS V14.01,2013-03-16 05:55:00,
2013-03-16 01:00:00,52.9,45.5,29.64,East,90,0.0,1.0,76,0.00,,,0.00,VWS V14.01,2013-03-16 06:00:00,
2013-03-16 01:05:00,52.8,45.1,29.64,East,90,0.0,1.0,75,0.00,,,0.00,VWS V14.01,2013-03-16 06:05:00,
2013-03-16 01:10:00,52.4,45.1,29.64,East,90,2.0,2.0,76,0.00,,,0.00,VWS V14.01,2013-03-16 06:10:00,
2013-03-16 01:15:00,52.7,45.4,29.64,East,90,1.0,4.0,76,0.00,,,0.00,VWS V14.01,2013-03-16 06:15:00,
2013-03-16 01:20:00,53.8,45.7,29.64,East,90,0.0,4.0,74,0.00,,,0.00,VWS V14.01,2013-03-16 06:20:00,
2013-03-16 01:25:00,54.7,45.9,29.64,East,90,0.0,4.0,72,0.00,,,0.00,VWS V14.01,2013-03-16 06:25:00,
2013-03-16 01:30:00,55.0,45.4,29.64,East,90,0.0,0.0,70,0.00,,,0.00,VWS V14.01,2013-03-16 06:30:00,
2013-03-16 01:35:00,54.5,45.3,29.64,East,90,0.0,0.0,71,0.00,,,0.00,VWS V14.01,2013-03-16 06:35:00,
2013-03-16 01:40:00,53.9,45.1,29.64,East,90,0.0,0.0,72,0.00,,,0.00,VWS V14.01,2013-03-16 06:40:00,
2013-03-16 01:45:00,53.4,45.0,29.64,East,90,1.0,2.0,73,0.00,,,0.00,VWS V14.01,2013-03-16 06:45:00,
2013-03-16 01:50:00,53.4,45.3,29.64,East,90,0.0,2.0,74,0.00,,,0.00,VWS V14.01,2013-03-16 06:50:00,
2013-03-16 01:55:00,53.5,45.4,29.64,East,90,0.0,2.0,74,0.00,,,0.00,VWS V14.01,2013-03-16 06:55:00,
2013-03-16 02:00:00,53.7,45.6,29.65,East,90,0.0,0.0,74,0.00,,,0.00,VWS V14.01,2013-03-16 07:00:00,
2013-03-16 02:05:00,54.4,46.3,29.65,ENE,58,2.0,4.0,74,0.00,,,0.00,VWS V14.01,2013-03-16 07:05:00,
2013-03-16 02:10:00,54.4,45.9,29.65,NE,55,0.0,4.0,73,0.00,,,0.00,VWS V14.01,2013-03-16 07:10:00,
2013-03-16 02:15:00,54.5,46.0,29.65,West,259,0.0,5.0,73,0.00,,,0.00,VWS V14.01,2013-03-16 07:15:00,
2013-03-16 02:20:00,55.0,47.2,29.65,WSW,254,2.0,12.0,75,0.00,,,0.00,VWS V14.01,2013-03-16 07:20:00,
2013-03-16 02:25:00,57.9,48.6,29.65,West,275,5.0,12.0,71,0.00,,,0.00,VWS V14.01,2013-03-16 07:25:00,
2013-03-16 02:30:00,60.9,48.2,29.66,NW,309,8.0,8.0,63,0.00,,,0.00,VWS V14.01,2013-03-16 07:30:00,
2013-03-16 02:35:00,61.5,47.9,29.66,WNW,294,6.0,11.0,61,0.00,,,0.00,VWS V14.01,2013-03-16 07:35:00,
2013-03-16 02:40:00,60.3,47.2,29.66,WNW,302,5.0,11.0,62,0.00,,,0.00,VWS V14.01,2013-03-16 07:40:00,
2013-03-16 02:45:00,58.3,46.2,29.67,NW,307,5.0,11.0,64,0.00,,,0.00,VWS V14.01,2013-03-16 07:45:00,
2013-03-16 02:50:00,56.3,45.5,29.68,NW,318,2.0,11.0,67,0.00,,,0.00,VWS V14.01,2013-03-16 07:50:00,
2013-03-16 02:55:00,54.6,45.0,29.68,WNW,292,5.0,11.0,70,0.00,,,0.00,VWS V14.01,2013-03-16 07:55:00,
2013-03-16 03:00:00,53.3,44.5,29.68,NNW,331,1.0,5.0,72,0.00,,,0.00,VWS V14.01,2013-03-16 08:00:00,
2013-03-16 03:05:00,52.4,44.4,29.69,West,273,0.0,11.0,74,0.00,,,0.00,VWS V14.01,2013-03-16 08:05:00,
2013-03-16 03:10:00,51.8,44.1,29.69,NW,322,6.0,11.0,75,0.00,,,0.00,VWS V14.01,2013-03-16 08:10:00,
2013-03-16 03:16:00,51.4,43.8,29.69,NW,304,7.0,11.0,75,0.00,,,0.00,VWS V14.01,2013-03-16 08:16:00,
2013-03-16 03:21:00,51.1,43.8,29.69,WNW,296,0.0,11.0,76,0.00,,,0.00,VWS V14.01,2013-03-16 08:21:00,
2013-03-16 03:26:00,50.9,43.6,29.69,WNW,290,5.0,11.0,76,0.00,,,0.00,VWS V14.01,2013-03-16 08:26:00,
2013-03-16 03:30:00,60.7,48.5,29.66,NNW,331,4.0,12.0,64,0.00,,,0.00,VWS V14.01,2013-03-16 08:30:00,
2013-03-16 03:31:00,51.0,43.7,29.69,West,277,2.0,5.0,76,0.00,,,0.00,VWS V14.01,2013-03-16 08:31:00,
2013-03-16 03:36:00,50.9,44.0,29.70,WSW,247,0.0,6.0,77,0.00,,,0.00,VWS V14.01,2013-03-16 08:36:00,
2013-03-16 03:41:00,50.8,43.9,29.70,NW,308,5.0,12.0,77,0.00,,,0.00,VWS V14.01,2013-03-16 08:41:00,
2013-03-16 03:46:00,50.7,43.8,29.70,WSW,244,6.0,12.0,77,0.00,,,0.00,VWS V14.01,2013-03-16 08:46:00,
2013-03-16 03:51:00,50.5,43.2,29.71,WNW,301,0.0,12.0,76,0.00,,,0.00,VWS V14.01,2013-03-16 08:51:00,
2013-03-16 03:56:00,50.3,43.0,29.71,WNW,302,1.0,12.0,76,0.00,,,0.00,VWS V14.01,2013-03-16 08:56:00,
2013-03-16 04:00:00,53.5,44.7,29.68,NNW,331,5.0,11.0,72,0.00,,,0.00,VWS V14.01,2013-03-16 09:00:00,
2013-03-16 04:01:00,49.9,43.0,29.71,NNW,333,0.0,4.0,77,0.00,,,0.00,VWS V14.01,2013-03-16 09:01:00,
2013-03-16 04:06:00,49.6,42.7,29.72,NE,53,1.0,5.0,77,0.00,,,0.00,VWS V14.01,2013-03-16 09:06:00,
2013-03-16 04:11:00,49.4,42.5,29.72,West,271,2.0,6.0,77,0.00,,,0.00,VWS V14.01,2013-03-16 09:11:00,
2013-03-16 04:16:00,49.0,42.1,29.72,WNW,300,0.0,8.0,77,0.00,,,0.00,VWS V14.01,2013-03-16 09:16:00,
2013-03-16 04:26:00,48.0,41.2,29.72,NW,313,1.0,8.0,77,0.00,,,0.00,VWS V14.01,2013-03-16 09:26:00,
2013-03-16 04:30:00,51.0,43.7,29.69,West,277,1.0,11.0,76,0.00,,,0.00,VWS V14.01,2013-03-16 09:30:00,
2013-03-16 04:31:00,47.5,41.0,29.73,West,260,0.0,4.0,78,0.00,,,0.00,VWS V14.01,2013-03-16 09:31:00,
2013-03-16 04:36:00,47.1,40.9,29.73,West,260,2.0,5.0,79,0.00,,,0.00,VWS V14.01,2013-03-16 09:36:00,
2013-03-16 04:41:00,46.8,40.6,29.73,SSE,159,2.0,6.0,79,0.00,,,0.00,VWS V14.01,2013-03-16 09:41:00,
2013-03-16 04:46:00,46.6,40.5,29.73,SSW,192,0.0,6.0,79,0.00,,,0.00,VWS V14.01,2013-03-16 09:46:00,
2013-03-16 04:51:00,46.3,40.2,29.74,SW,223,0.0,6.0,79,0.00,,,0.00,VWS V14.01,2013-03-16 09:51:00,
2013-03-16 04:56:00,46.1,40.3,29.74,NNE,30,2.0,6.0,80,0.00,,,0.00,VWS V14.01,2013-03-16 09:56:00,
2013-03-16 05:00:00,50.0,42.7,29.71,NNW,333,4.0,12.0,76,0.00,,,0.00,VWS V14.01,2013-03-16 10:00:00,
2013-03-16 05:01:00,45.8,39.7,29.74,WNW,287,0.0,2.0,79,0.00,,,0.00,VWS V14.01,2013-03-16 10:01:00,
2013-03-16 05:06:00,45.6,39.8,29.75,WNW,298,4.0,6.0,80,0.00,,,0.00,VWS V14.01,2013-03-16 10:06:00,
2013-03-16 05:11:00,45.3,39.5,29.75,WSW,246,1.0,11.0,80,0.00,,,0.00,VWS V14.01,2013-03-16 10:11:00,
2013-03-16 05:16:00,45.1,39.3,29.75,NE,39,1.0,11.0,80,0.00,,,0.00,VWS V14.01,2013-03-16 10:16:00,
2013-03-16 05:21:00,44.8,39.0,29.75,West,272,4.0,12.0,80,0.00,,,0.00,VWS V14.01,2013-03-16 10:21:00,
2013-03-16 05:26:00,44.6,39.1,29.75,NW,315,2.0,18.0,81,0.00,,,0.00,VWS V14.01,2013-03-16 10:26:00,
2013-03-16 05:30:00,47.6,41.1,29.73,WNW,285,4.0,9.0,78,0.00,,,0.00,VWS V14.01,2013-03-16 10:30:00,
2013-03-16 05:31:00,44.4,38.9,29.75,WNW,286,1.0,5.0,81,0.00,,,0.00,VWS V14.01,2013-03-16 10:31:00,
2013-03-16 05:36:00,44.2,38.8,29.76,NW,325,1.0,13.0,81,0.00,,,0.00,VWS V14.01,2013-03-16 10:36:00,
2013-03-16 05:41:00,44.0,38.9,29.76,ENE,62,3.0,13.0,82,0.00,,,0.00,VWS V14.01,2013-03-16 10:41:00,
2013-03-16 05:46:00,43.7,38.6,29.76,WNW,297,4.0,13.0,82,0.00,,,0.00,VWS V14.01,2013-03-16 10:46:00,
2013-03-16 05:52:00,43.6,38.5,29.77,NW,325,0.0,13.0,82,0.00,,,0.00,VWS V14.01,2013-03-16 10:52:00,
2013-03-16 05:57:00,43.4,38.3,29.77,WNW,296,5.0,13.0,82,0.00,,,0.00,VWS V14.01,2013-03-16 10:57:00,
2013-03-16 06:00:00,45.9,39.8,29.74,WNW,287,2.0,7.0,79,0.00,,,0.00,VWS V14.01,2013-03-16 11:00:00,
2013-03-16 06:02:00,43.2,38.4,29.78,WNW,292,0.0,6.0,83,0.00,,,0.00,VWS V14.01,2013-03-16 11:02:00,
2013-03-16 06:07:00,43.1,38.3,29.78,West,277,2.0,6.0,83,0.00,,,0.00,VWS V14.01,2013-03-16 11:07:00,
2013-03-16 06:12:00,43.0,38.2,29.79,WSW,250,3.0,7.0,83,0.00,,,0.00,VWS V14.01,2013-03-16 11:12:00,
2013-03-16 06:17:00,42.7,37.9,29.80,East,79,3.0,7.0,83,0.00,,,0.00,VWS V14.01,2013-03-16 11:17:00,
2013-03-16 06:22:00,42.4,37.6,29.81,North,351,2.0,9.0,83,0.00,,,0.00,VWS V14.01,2013-03-16 11:22:00,
2013-03-16 06:27:00,42.2,37.4,29.82,WNW,290,5.0,13.0,83,0.00,,,0.00,VWS V14.01,2013-03-16 11:27:00,
2013-03-16 06:30:00,44.4,38.9,29.75,WNW,289,2.0,18.0,81,0.00,,,0.00,VWS V14.01,2013-03-16 11:30:00,
2013-03-16 06:32:00,42.0,37.2,29.83,WNW,285,2.0,13.0,83,0.00,,,0.00,VWS V14.01,2013-03-16 11:32:00,
2013-03-16 06:37:00,41.9,37.4,29.83,WSW,242,2.0,13.0,84,0.00,,,0.00,VWS V14.01,2013-03-16 11:37:00,
2013-03-16 06:42:00,41.7,37.2,29.84,North,355,5.0,13.0,84,0.00,,,0.00,VWS V14.01,2013-03-16 11:42:00,
2013-03-16 06:47:00,41.5,37.0,29.84,NW,325,7.0,13.0,84,0.00,,,0.00,VWS V14.01,2013-03-16 11:47:00,
2013-03-16 06:52:00,41.2,36.7,29.84,WNW,300,4.0,13.0,84,0.00,,,0.00,VWS V14.01,2013-03-16 11:52:00,
2013-03-16 06:57:00,40.9,36.5,29.85,WSW,249,5.0,16.0,84,0.00,,,0.00,VWS V14.01,2013-03-16 11:57:00,
2013-03-16 07:00:00,43.3,38.2,29.77,WNW,297,6.0,13.0,82,0.00,,,0.00,VWS V14.01,2013-03-16 12:00:00,
2013-03-16 07:02:00,40.7,36.2,29.86,West,268,8.0,11.0,84,0.00,,,0.00,VWS V14.01,2013-03-16 12:02:00,
2013-03-16 07:07:00,40.6,36.2,29.86,NW,307,8.0,17.0,84,0.00,,,0.00,VWS V14.01,2013-03-16 12:07:00,
2013-03-16 07:12:00,40.5,36.0,29.86,West,260,3.0,17.0,84,0.00,,,0.00,VWS V14.01,2013-03-16 12:12:00,
2013-03-16 07:17:00,40.4,36.0,29.86,WNW,297,6.0,17.0,84,0.00,,,0.00,VWS V14.01,2013-03-16 12:17:00,
2013-03-16 07:22:00,40.3,35.9,29.87,NW,309,4.0,17.0,84,0.00,,,0.00,VWS V14.01,2013-03-16 12:22:00,
2013-03-16 07:27:00,40.2,35.8,29.87,NW,321,8.0,17.0,84,0.00,,,0.00,VWS V14.01,2013-03-16 12:27:00,
2013-03-16 07:30:00,42.1,37.3,29.82,WNW,303,1.0,14.0,83,0.00,,,0.00,VWS V14.01,2013-03-16 12:30:00,
2013-03-16 07:32:00,40.2,35.8,29.88,West,265,5.0,8.0,84,0.00,,,0.00,VWS V14.01,2013-03-16 12:32:00,
2013-03-16 07:37:00,40.2,35.8,29.89,WSW,254,11.0,14.0,84,0.00,,,0.00,VWS V14.01,2013-03-16 12:37:00,
2013-03-16 07:42:00,40.2,35.8,29.89,West,259,0.0,14.0,84,0.00,,,0.00,VWS V14.01,2013-03-16 12:42:00,
2013-03-16 07:47:00,40.1,35.7,29.90,WNW,287,11.0,14.0,84,0.00,,,0.00,VWS V14.01,2013-03-16 12:47:00,
2013-03-16 07:52:00,40.1,35.7,29.90,West,281,5.0,14.0,84,0.00,,,0.00,VWS V14.01,2013-03-16 12:52:00,
2013-03-16 07:57:00,40.2,35.8,29.91,WNW,297,4.0,14.0,84,0.00,,,0.00,VWS V14.01,2013-03-16 12:57:00,
2013-03-16 08:00:00,40.8,36.3,29.85,WNW,301,8.0,16.0,84,0.00,,,0.00,VWS V14.01,2013-03-16 13:00:00,
2013-03-16 08:02:00,40.2,35.8,29.91,West,275,9.0,12.0,84,0.00,,,0.00,VWS V14.01,2013-03-16 13:02:00,
2013-03-16 08:07:00,40.2,35.8,29.91,West,277,2.0,13.0,84,0.00,,,0.00,VWS V14.01,2013-03-16 13:07:00,
2013-03-16 08:12:00,40.1,35.7,29.91,NW,309,9.0,14.0,84,0.00,,,0.00,VWS V14.01,2013-03-16 13:12:00,
2013-03-16 08:17:00,40.1,35.7,29.92,WNW,297,2.0,14.0,84,0.00,,,0.00,VWS V14.01,2013-03-16 13:17:00,
2013-03-16 08:22:00,40.1,35.7,29.92,SSW,202,1.0,14.0,84,0.00,,,0.00,VWS V14.01,2013-03-16 13:22:00,
2013-03-16 08:27:00,40.1,35.7,29.92,West,265,8.0,14.0,84,0.00,,,0.00,VWS V14.01,2013-03-16 13:27:00,
2013-03-16 08:30:00,40.2,35.8,29.87,WSW,249,6.0,17.0,84,0.00,,,0.00,VWS V14.01,2013-03-16 13:30:00,
2013-03-16 08:32:00,40.1,35.7,29.92,NE,38,6.0,9.0,84,0.00,,,0.00,VWS V14.01,2013-03-16 13:32:00,
2013-03-16 08:37:00,40.1,35.7,29.92,WNW,294,2.0,14.0,84,0.00,,,0.00,VWS V14.01,2013-03-16 13:37:00,
2013-03-16 08:42:00,40.1,35.4,29.92,WNW,287,5.0,14.0,83,0.00,,,0.00,VWS V14.01,2013-03-16 13:42:00,
2013-03-16 08:47:00,40.1,35.4,29.92,NNE,28,2.0,15.0,83,0.00,,,0.00,VWS V14.01,2013-03-16 13:47:00,
2013-03-16 08:52:00,40.1,35.4,29.93,WNW,302,11.0,15.0,83,0.00,,,0.00,VWS V14.01,2013-03-16 13:52:00,
2013-03-16 08:57:00,40.1,35.4,29.93,NW,304,5.0,15.0,83,0.00,,,0.00,VWS V14.01,2013-03-16 13:57:00,
2013-03-16 09:00:00,40.2,35.8,29.91,WNW,294,2.0,14.0,84,0.00,,,0.00,VWS V14.01,2013-03-16 14:00:00,
2013-03-16 09:02:00,40.2,35.5,29.93,WNW,290,7.0,8.0,83,0.00,,,0.00,VWS V14.01,2013-03-16 14:02:00,
2013-03-16 09:07:00,40.2,35.5,29.93,West,276,1.0,13.0,83,0.00,,,0.00,VWS V14.01,2013-03-16 14:07:00,
2013-03-16 09:12:00,40.3,35.6,29.93,NW,320,2.0,14.0,83,0.00,,,0.00,VWS V14.01,2013-03-16 14:12:00,
2013-03-16 09:17:00,40.4,35.3,29.93,West,281,1.0,14.0,82,0.00,,,0.00,VWS V14.01,2013-03-16 14:17:00,
2013-03-16 09:22:00,40.5,35.8,29.93,WSW,255,2.0,14.0,83,0.00,,,0.00,VWS V14.01,2013-03-16 14:22:00,
2013-03-16 09:28:00,40.5,35.8,29.94,West,263,3.0,14.0,83,0.00,,,0.00,VWS V14.01,2013-03-16 14:28:00,
2013-03-16 09:30:00,40.1,35.7,29.92,West,279,4.0,14.0,84,0.00,,,0.00,VWS V14.01,2013-03-16 14:30:00,
2013-03-16 09:33:00,40.6,35.8,29.94,WNW,292,6.0,13.0,83,0.00,,,0.00,VWS V14.01,2013-03-16 14:33:00,
2013-03-16 09:38:00,40.6,35.5,29.94,West,272,6.0,14.0,82,0.00,,,0.00,VWS V14.01,2013-03-16 14:38:00,
2013-03-16 09:43:00,40.6,35.5,29.94,WNW,287,4.0,18.0,82,0.00,,,0.00,VWS V14.01,2013-03-16 14:43:00,
2013-03-16 09:48:00,40.7,35.6,29.94,NNW,342,4.0,18.0,82,0.00,,,0.00,VWS V14.01,2013-03-16 14:48:00,
2013-03-16 09:53:00,40.8,35.7,29.95,West,276,6.0,18.0,82,0.00,,,0.00,VWS V14.01,2013-03-16 14:53:00,
2013-03-16 09:58:00,40.8,35.4,29.95,SSW,202,1.0,22.0,81,0.00,,,0.00,VWS V14.01,2013-03-16 14:58:00,
2013-03-16 10:00:00,40.2,35.5,29.93,NW,306,5.0,15.0,83,0.00,,,0.00,VWS V14.01,2013-03-16 15:00:00,
2013-03-16 10:03:00,40.8,35.4,29.95,WNW,284,2.0,11.0,81,0.00,,,0.00,VWS V14.01,2013-03-16 15:03:00,
2013-03-16 10:08:00,40.9,35.5,29.95,NW,309,4.0,18.0,81,0.00,,,0.00,VWS V14.01,2013-03-16 15:08:00,
2013-03-16 10:13:00,40.9,35.2,29.95,West,278,2.0,18.0,80,0.00,,,0.00,VWS V14.01,2013-03-16 15:13:00,
2013-03-16 10:18:00,41.0,35.3,29.95,West,263,1.0,18.0,80,0.00,,,0.00,VWS V14.01,2013-03-16 15:18:00,
2013-03-16 10:23:00,41.1,35.4,29.95,North,355,4.0,18.0,80,0.00,,,0.00,VWS V14.01,2013-03-16 15:23:00,
2013-03-16 10:28:00,41.1,35.4,29.95,West,264,7.0,18.0,80,0.00,,,0.00,VWS V14.01,2013-03-16 15:28:00,
2013-03-16 10:30:00,40.5,35.5,29.94,WNW,300,0.0,15.0,82,0.00,,,0.00,VWS V14.01,2013-03-16 15:30:00,
2013-03-16 10:33:00,41.1,35.1,29.96,West,271,0.0,5.0,79,0.00,,,0.00,VWS V14.01,2013-03-16 15:33:00,
2013-03-16 10:38:00,41.1,35.1,29.96,WSW,240,1.0,11.0,79,0.00,,,0.00,VWS V14.01,2013-03-16 15:38:00,
2013-03-16 10:43:00,41.1,35.1,29.97,North,355,6.0,11.0,79,0.00,,,0.00,VWS V14.01,2013-03-16 15:43:00,
2013-03-16 10:48:00,41.2,35.2,29.97,WNW,286,4.0,11.0,79,0.00,,,0.00,VWS V14.01,2013-03-16 15:48:00,
2013-03-16 10:53:00,41.3,35.3,29.97,SE,133,1.0,11.0,79,0.00,,,0.00,VWS V14.01,2013-03-16 15:53:00,
2013-03-16 10:58:00,41.4,35.4,29.97,South,171,4.0,11.0,79,0.00,,,0.00,VWS V14.01,2013-03-16 15:58:00,
2013-03-16 11:00:00,40.8,35.4,29.95,ESE,121,2.0,22.0,81,0.00,,,0.00,VWS V14.01,2013-03-16 16:00:00,
2013-03-16 11:03:00,41.5,35.5,29.97,West,268,3.0,7.0,79,0.00,,,0.00,VWS V14.01,2013-03-16 16:03:00,
2013-03-16 11:08:00,41.5,35.2,29.97,NNE,13,3.0,7.0,78,0.00,,,0.00,VWS V14.01,2013-03-16 16:08:00,
2013-03-16 11:13:00,41.5,35.2,29.97,WSW,248,1.0,8.0,78,0.00,,,0.00,VWS V14.01,2013-03-16 16:13:00,
2013-03-16 11:18:00,41.5,35.2,29.97,South,184,5.0,8.0,78,0.00,,,0.00,VWS V14.01,2013-03-16 16:18:00,
2013-03-16 11:23:00,41.6,35.3,29.98,NNW,348,4.0,8.0,78,0.00,,,0.00,VWS V14.01,2013-03-16 16:23:00,
2013-03-16 11:28:00,41.5,34.8,29.98,West,260,1.0,8.0,77,0.00,,,0.00,VWS V14.01,2013-03-16 16:28:00,
2013-03-16 11:30:00,41.1,35.1,29.96,NW,317,1.0,18.0,79,0.00,,,0.00,VWS V14.01,2013-03-16 16:30:00,
2013-03-16 11:33:00,41.6,35.3,29.98,West,263,0.0,2.0,78,0.00,,,0.00,VWS V14.01,2013-03-16 16:33:00,
2013-03-16 11:38:00,41.8,35.1,29.98,East,98,1.0,7.0,77,0.00,,,0.00,VWS V14.01,2013-03-16 16:38:00,
2013-03-16 11:43:00,41.8,35.1,29.98,East,89,3.0,7.0,77,0.00,,,0.00,VWS V14.01,2013-03-16 16:43:00,
2013-03-16 11:48:00,41.9,34.9,30.00,West,279,4.0,8.0,76,0.00,,,0.00,VWS V14.01,2013-03-16 16:48:00,
2013-03-16 11:53:00,42.0,35.0,30.00,South,188,1.0,8.0,76,0.00,,,0.00,VWS V14.01,2013-03-16 16:53:00,
2013-03-16 11:58:00,42.0,35.0,30.00,WNW,300,5.0,9.0,76,0.00,,,0.00,VWS V14.01,2013-03-16 16:58:00,
2013-03-16 12:00:00,41.4,35.4,29.97,NNW,348,6.0,11.0,79,0.00,,,0.00,VWS V14.01,2013-03-16 17:00:00,
2013-03-16 12:03:00,42.0,35.0,30.01,WNW,294,6.0,13.0,76,0.00,,,0.00,VWS V14.01,2013-03-16 17:03:00,
2013-03-16 12:08:00,42.0,35.0,30.01,West,273,7.0,13.0,76,0.00,,,0.00,VWS V14.01,2013-03-16 17:08:00,
2013-03-16 12:13:00,42.1,34.8,30.01,WNW,298,4.0,13.0,75,0.00,,,0.00,VWS V14.01,2013-03-16 17:13:00,
2013-03-16 12:18:00,42.2,34.9,30.01,WNW,282,7.0,13.0,75,0.00,,,0.00,VWS V14.01,2013-03-16 17:18:00,
2013-03-16 12:23:00,42.3,34.6,30.01,SE,146,2.0,13.0,74,0.00,,,0.00,VWS V14.01,2013-03-16 17:23:00,
2013-03-16 12:28:00,42.4,34.7,30.02,WNW,290,4.0,13.0,74,0.00,,,0.00,VWS V14.01,2013-03-16 17:28:00,
2013-03-16 12:30:00,41.5,35.2,29.98,West,260,0.0,8.0,78,0.00,,,0.00,VWS V14.01,2013-03-16 17:30:00,
2013-03-16 12:33:00,42.4,34.7,30.02,West,259,3.0,8.0,74,0.00,,,0.00,VWS V14.01,2013-03-16 17:33:00,
2013-03-16 12:38:00,42.4,35.0,30.01,East,101,0.0,8.0,75,0.00,,,0.00,VWS V14.01,2013-03-16 17:38:00,
2013-03-16 12:43:00,42.5,34.8,30.01,NNW,333,2.0,8.0,74,0.00,,,0.00,VWS V14.01,2013-03-16 17:43:00,
2013-03-16 12:48:00,42.4,36.0,30.01,NNE,25,3.0,11.0,78,0.00,,,0.00,VWS V14.01,2013-03-16 17:48:00,
2013-03-16 12:53:00,42.2,34.5,30.01,ENE,67,0.0,11.0,74,0.00,,,0.00,VWS V14.01,2013-03-16 17:53:00,
2013-03-16 12:58:00,42.1,34.4,30.02,NNW,336,4.0,11.0,74,0.00,,,0.00,VWS V14.01,2013-03-16 17:58:00,
2013-03-16 13:00:00,42.0,35.0,30.00,WNW,296,12.0,12.0,76,0.00,,,0.00,VWS V14.01,2013-03-16 18:00:00,
2013-03-16 13:03:00,42.0,34.3,30.02,West,267,0.0,4.0,74,0.00,,,0.00,VWS V14.01,2013-03-16 18:03:00,
2013-03-16 13:08:00,42.0,34.3,30.02,ENE,60,3.0,6.0,74,0.00,,,0.00,VWS V14.01,2013-03-16 18:08:00,
2013-03-16 13:13:00,42.0,34.3,30.02,East,89,2.0,6.0,74,0.00,,,0.00,VWS V14.01,2013-03-16 18:13:00,
2013-03-16 13:18:00,42.0,34.3,30.03,NNE,15,0.0,6.0,74,0.00,,,0.00,VWS V14.01,2013-03-16 18:18:00,
2013-03-16 13:23:00,42.0,34.3,30.03,ESE,104,4.0,6.0,74,0.00,,,0.00,VWS V14.01,2013-03-16 18:23:00,
2013-03-16 13:28:00,42.0,34.3,30.03,NW,314,1.0,7.0,74,0.00,,,0.00,VWS V14.01,2013-03-16 18:28:00,
2013-03-16 13:30:00,42.4,34.7,30.02,NW,310,4.0,13.0,74,0.00,,,0.00,VWS V14.01,2013-03-16 18:30:00,
2013-03-16 13:33:00,41.9,34.2,30.03,ENE,70,3.0,4.0,74,0.00,,,0.00,VWS V14.01,2013-03-16 18:33:00,
2013-03-16 13:38:00,41.9,34.2,30.03,ENE,78,0.0,4.0,74,0.00,,,0.00,VWS V14.01,2013-03-16 18:38:00,
2013-03-16 13:43:00,41.9,34.2,30.02,NNE,30,0.0,4.0,74,0.00,,,0.00,VWS V14.01,2013-03-16 18:43:00,
2013-03-16 13:48:00,41.9,33.9,30.03,NNE,23,0.0,5.0,73,0.00,,,0.00,VWS V14.01,2013-03-16 18:48:00,
2013-03-16 13:53:00,41.8,33.8,30.04,NE,40,0.0,7.0,73,0.00,,,0.00,VWS V14.01,2013-03-16 18:53:00,
2013-03-16 13:58:00,41.8,34.1,30.03,ESE,103,0.0,7.0,74,0.00,,,0.00,VWS V14.01,2013-03-16 18:58:00,
2013-03-16 14:00:00,42.1,34.4,30.02,West,267,4.0,11.0,74,0.00,,,0.00,VWS V14.01,2013-03-16 19:00:00,
2013-03-16 14:03:00,41.8,34.1,30.03,ENE,59,3.0,5.0,74,0.00,,,0.00,VWS V14.01,2013-03-16 19:03:00,
2013-03-16 14:08:00,41.8,34.1,30.03,East,98,0.0,6.0,74,0.00,,,0.00,VWS V14.01,2013-03-16 19:08:00,
2013-03-16 14:13:00,41.6,33.9,30.04,West,270,8.0,11.0,74,0.00,,,0.00,VWS V14.01,2013-03-16 19:13:00,
2013-03-16 14:18:00,41.5,33.8,30.04,SE,125,0.0,11.0,74,0.00,,,0.00,VWS V14.01,2013-03-16 19:18:00,
2013-03-16 14:23:00,41.5,33.8,30.04,ENE,61,3.0,11.0,74,0.00,,,0.00,VWS V14.01,2013-03-16 19:23:00,
2013-03-16 14:28:00,41.5,33.8,30.03,NNE,24,2.0,11.0,74,0.00,,,0.00,VWS V14.01,2013-03-16 19:28:00,
2013-03-16 14:30:00,41.9,34.2,30.03,North,360,2.0,7.0,74,0.00,,,0.00,VWS V14.01,2013-03-16 19:30:00,
2013-03-16 14:34:00,41.4,33.8,30.03,North,355,0.0,7.0,74,0.00,,,0.00,VWS V14.01,2013-03-16 19:34:00,
2013-03-16 14:39:00,41.4,33.8,30.03,ENE,76,2.0,7.0,74,0.00,,,0.00,VWS V14.01,2013-03-16 19:39:00,
2013-03-16 14:44:00,41.3,33.7,30.03,NE,54,2.0,7.0,74,0.00,,,0.00,VWS V14.01,2013-03-16 19:44:00,
2013-03-16 14:49:00,41.3,33.7,30.03,SE,146,1.0,7.0,74,0.00,,,0.00,VWS V14.01,2013-03-16 19:49:00,
2013-03-16 14:54:00,41.4,34.1,30.03,SE,146,0.0,7.0,75,0.00,,,0.00,VWS V14.01,2013-03-16 19:54:00,
2013-03-16 14:59:00,41.4,34.1,30.03,ESE,109,2.0,7.0,75,0.00,,,0.00,VWS V14.01,2013-03-16 19:59:00,
2013-03-16 15:00:00,41.8,34.1,30.04,East,82,3.0,7.0,74,0.00,,,0.00,VWS V14.01,2013-03-16 20:00:00,
2013-03-16 15:04:00,41.5,34.2,30.02,ESE,115,1.0,5.0,75,0.00,,,0.00,VWS V14.01,2013-03-16 20:04:00,
2013-03-16 15:09:00,41.5,34.2,30.02,East,90,0.0,5.0,75,0.00,,,0.00,VWS V14.01,2013-03-16 20:09:00,
2013-03-16 15:14:00,41.5,34.2,30.02,East,98,2.0,6.0,75,0.00,,,0.00,VWS V14.01,2013-03-16 20:14:00,
2013-03-16 15:19:00,41.5,34.2,30.02,ENE,59,1.0,6.0,75,0.00,,,0.00,VWS V14.01,2013-03-16 20:19:00,
2013-03-16 15:24:00,41.5,34.2,30.01,NE,46,3.0,7.0,75,0.00,,,0.00,VWS V14.01,2013-03-16 20:24:00,
2013-03-16 15:29:00,41.4,34.1,30.01,NNE,27,6.0,7.0,75,0.00,,,0.00,VWS V14.01,2013-03-16 20:29:00,
2013-03-16 15:30:00,41.4,33.8,30.04,ESE,103,2.0,11.0,74,0.00,,,0.00,VWS V14.01,2013-03-16 20:30:00,
2013-03-16 15:34:00,41.4,33.8,30.01,NE,35,3.0,4.0,74,0.00,,,0.00,VWS V14.01,2013-03-16 20:34:00,
2013-03-16 15:39:00,41.3,33.7,30.02,ENE,65,0.0,5.0,74,0.00,,,0.00,VWS V14.01,2013-03-16 20:39:00,
2013-03-16 15:44:00,41.3,34.0,30.02,ENE,76,2.0,8.0,75,0.00,,,0.00,VWS V14.01,2013-03-16 20:44:00,
2013-03-16 15:49:00,41.3,34.0,30.02,NE,56,0.0,8.0,75,0.00,,,0.00,VWS V14.01,2013-03-16 20:49:00,
2013-03-16 15:54:00,41.3,34.0,30.03,NE,53,2.0,8.0,75,0.00,,,0.00,VWS V14.01,2013-03-16 20:54:00,
2013-03-16 15:59:00,41.3,34.0,30.03,NE,42,0.0,8.0,75,0.00,,,0.00,VWS V14.01,2013-03-16 20:59:00,
2013-03-16 16:00:00,41.5,34.2,30.02,ESE,103,0.0,7.0,75,0.00,,,0.00,VWS V14.01,2013-03-16 21:00:00,
2013-03-16 16:04:00,41.3,34.0,30.03,East,84,2.0,6.0,75,0.00,,,0.00,VWS V14.01,2013-03-16 21:04:00,
2013-03-16 16:09:00,41.3,34.0,30.03,ESE,116,0.0,6.0,75,0.00,,,0.00,VWS V14.01,2013-03-16 21:09:00,
2013-03-16 16:14:00,41.2,34.2,30.04,East,94,6.0,6.0,76,0.00,,,0.00,VWS V14.01,2013-03-16 21:14:00,
2013-03-16 16:19:00,41.2,34.2,30.04,ENE,77,3.0,6.0,76,0.00,,,0.00,VWS V14.01,2013-03-16 21:19:00,
2013-03-16 16:24:00,41.1,33.8,30.04,NNE,18,1.0,6.0,75,0.00,,,0.00,VWS V14.01,2013-03-16 21:24:00,
2013-03-16 16:29:00,41.0,34.0,30.04,ESE,106,4.0,8.0,76,0.00,,,0.00,VWS V14.01,2013-03-16 21:29:00,
2013-03-16 16:30:00,41.4,34.1,30.01,NE,45,2.0,7.0,75,0.00,,,0.00,VWS V14.01,2013-03-16 21:30:00,
2013-03-16 16:34:00,41.0,34.0,30.04,East,87,0.0,2.0,76,0.00,,,0.00,VWS V14.01,2013-03-16 21:34:00,
2013-03-16 16:39:00,41.0,34.0,30.04,ENE,70,1.0,4.0,76,0.00,,,0.00,VWS V14.01,2013-03-16 21:39:00,
2013-03-16 16:44:00,41.1,34.1,30.04,East,93,4.0,5.0,76,0.00,,,0.00,VWS V14.01,2013-03-16 21:44:00,
2013-03-16 16:49:00,41.0,34.0,30.03,East,90,1.0,5.0,76,0.00,,,0.00,VWS V14.01,2013-03-16 21:49:00,
2013-03-16 16:54:00,41.0,34.0,30.03,East,88,0.0,5.0,76,0.00,,,0.00,VWS V14.01,2013-03-16 21:54:00,
2013-03-16 16:59:00,41.1,34.1,30.03,East,88,0.0,5.0,76,0.00,,,0.00,VWS V14.01,2013-03-16 21:59:00,
2013-03-16 17:00:00,41.3,34.0,30.03,NE,51,0.0,8.0,75,0.00,,,0.00,VWS V14.01,2013-03-16 22:00:00,
2013-03-16 17:04:00,41.3,34.3,30.03,East,88,0.0,3.0,76,0.00,,,0.00,VWS V14.01,2013-03-16 22:04:00,
2013-03-16 17:09:00,41.3,34.0,30.03,East,86,3.0,3.0,75,0.00,,,0.00,VWS V14.01,2013-03-16 22:09:00,
2013-03-16 17:14:00,41.3,34.0,30.04,NNE,13,0.0,4.0,75,0.00,,,0.00,VWS V14.01,2013-03-16 22:14:00,
2013-03-16 17:19:00,41.3,34.0,30.04,NW,321,1.0,5.0,75,0.00,,,0.00,VWS V14.01,2013-03-16 22:19:00,
2013-03-16 17:24:00,41.2,33.9,30.04,NNE,28,1.0,5.0,75,0.00,,,0.00,VWS V14.01,2013-03-16 22:24:00,
2013-03-16 17:29:00,41.1,33.8,30.04,WNW,298,1.0,6.0,75,0.00,,,0.00,VWS V14.01,2013-03-16 22:29:00,
2013-03-16 17:30:00,41.0,34.0,30.04,East,87,0.0,8.0,76,0.00,,,0.00,VWS V14.01,2013-03-16 22:30:00,
2013-03-16 17:34:00,41.1,33.8,30.04,WNW,298,1.0,1.0,75,0.00,,,0.00,VWS V14.01,2013-03-16 22:34:00,
2013-03-16 17:39:00,41.1,33.8,30.04,NW,317,0.0,4.0,75,0.00,,,0.00,VWS V14.01,2013-03-16 22:39:00,
2013-03-16 17:44:00,41.1,33.8,30.04,NW,317,0.0,4.0,75,0.00,,,0.00,VWS V14.01,2013-03-16 22:44:00,
2013-03-16 17:49:00,41.1,33.8,30.05,NW,317,2.0,4.0,75,0.00,,,0.00,VWS V14.01,2013-03-16 22:49:00,
2013-03-16 17:54:00,41.1,33.8,30.05,NW,317,1.0,4.0,75,0.00,,,0.00,VWS V14.01,2013-03-16 22:54:00,
2013-03-16 17:59:00,41.0,33.7,30.05,NW,317,0.0,4.0,75,0.00,,,0.00,VWS V14.01,2013-03-16 22:59:00,
2013-03-16 18:00:00,41.1,34.1,30.03,East,88,1.0,5.0,76,0.00,,,0.00,VWS V14.01,2013-03-16 23:00:00,
2013-03-16 18:04:00,41.0,33.4,30.05,NW,317,0.0,2.0,74,0.00,,,0.00,VWS V14.01,2013-03-16 23:04:00,
2013-03-16 18:09:00,41.0,33.4,30.05,NW,316,2.0,4.0,74,0.00,,,0.00,VWS V14.01,2013-03-16 23:09:00,
2013-03-16 18:14:00,40.9,33.6,30.05,WNW,294,0.0,7.0,75,0.00,,,0.00,VWS V14.01,2013-03-16 23:14:00,
2013-03-16 18:19:00,40.9,33.6,30.05,WNW,294,2.0,7.0,75,0.00,,,0.00,VWS V14.01,2013-03-16 23:19:00,
2013-03-16 18:24:00,40.9,33.6,30.06,WNW,294,0.0,7.0,75,0.00,,,0.00,VWS V14.01,2013-03-16 23:24:00,
2013-03-16 18:29:00,40.8,33.5,30.06,WNW,294,0.0,7.0,75,0.00,,,0.00,VWS V14.01,2013-03-16 23:29:00,
2013-03-16 18:30:00,41.2,33.9,30.04,WNW,298,0.0,6.0,75,0.00,,,0.00,VWS V14.01,2013-03-16 23:30:00,
2013-03-16 18:34:00,40.8,33.2,30.06,WNW,294,0.0,1.0,74,0.00,,,0.00,VWS V14.01,2013-03-16 23:34:00,
2013-03-16 18:39:00,40.7,33.4,30.06,WNW,294,0.0,2.0,75,0.00,,,0.00,VWS V14.01,2013-03-16 23:39:00,
2013-03-16 18:44:00,40.7,33.1,30.05,WNW,294,0.0,4.0,74,0.00,,,0.00,VWS V14.01,2013-03-16 23:44:00,
2013-03-16 18:49:00,40.6,33.0,30.05,WNW,294,0.0,4.0,74,0.00,,,0.00,VWS V14.01,2013-03-16 23:49:00,
2013-03-16 18:54:00,40.6,33.3,30.06,WNW,294,1.0,4.0,75,0.00,,,0.00,VWS V14.01,2013-03-16 23:54:00,
2013-03-16 18:59:00,40.5,32.9,30.05,WNW,294,0.0,4.0,74,0.00,,,0.00,VWS V14.01,2013-03-16 23:59:00,
2013-03-16 19:00:00,41.1,33.8,30.05,NW,317,0.0,4.0,75,0.00,,,0.00,VWS V14.01,2013-03-17 00:00:00,
2013-03-16 19:04:00,40.5,33.2,30.05,WNW,294,0.0,0.0,75,0.00,,,0.00,VWS V14.01,2013-03-17 00:04:00,
2013-03-16 19:09:00,40.5,32.9,30.06,WNW,296,0.0,4.0,74,0.00,,,0.00,VWS V14.01,2013-03-17 00:09:00,
2013-03-16 19:14:00,40.4,32.8,30.06,WNW,296,0.0,4.0,74,0.00,,,0.00,VWS V14.01,2013-03-17 00:14:00,
2013-03-16 19:19:00,40.4,33.1,30.06,WNW,294,0.0,4.0,75,0.00,,,0.00,VWS V14.01,2013-03-17 00:19:00,
2013-03-16 19:24:00,40.4,33.1,30.06,ESE,118,1.0,5.0,75,0.00,,,0.00,VWS V14.01,2013-03-17 00:24:00,
2013-03-16 19:29:00,40.3,33.0,30.06,ENE,59,1.0,5.0,75,0.00,,,0.00,VWS V14.01,2013-03-17 00:29:00,
2013-03-16 19:30:00,40.8,33.5,30.06,WNW,294,0.0,7.0,75,0.00,,,0.00,VWS V14.01,2013-03-17 00:30:00,
2013-03-16 19:34:00,40.3,33.0,30.06,ENE,59,0.0,1.0,75,0.00,,,0.00,VWS V14.01,2013-03-17 00:34:00,
2013-03-16 19:39:00,40.2,32.9,30.06,NE,49,2.0,4.0,75,0.00,,,0.00,VWS V14.01,2013-03-17 00:39:00,
2013-03-16 19:44:00,40.2,32.9,30.06,East,94,2.0,5.0,75,0.00,,,0.00,VWS V14.01,2013-03-17 00:44:00,
2013-03-16 19:50:00,40.1,32.8,30.06,East,93,2.0,5.0,75,0.00,,,0.00,VWS V14.01,2013-03-17 00:50:00,
2013-03-16 19:55:00,40.1,32.8,30.06,East,93,1.0,5.0,75,0.00,,,0.00,VWS V14.01,2013-03-17 00:55:00,
2013-03-16 20:00:00,40.0,32.7,30.07,NNE,24,0.0,5.0,75,0.00,,,0.00,VWS V14.01,2013-03-17 01:00:00,
2013-03-16 20:05:00,40.0,32.4,30.07,SE,136,0.0,5.0,74,0.00,,,0.00,VWS V14.01,2013-03-17 01:05:00,
2013-03-16 20:10:00,40.0,32.7,30.06,SE,134,1.0,5.0,75,0.00,,,0.00,VWS V14.01,2013-03-17 01:10:00,
2013-03-16 20:15:00,40.0,32.7,30.06,ESE,110,0.0,5.0,75,0.00,,,0.00,VWS V14.01,2013-03-17 01:15:00,
2013-03-16 20:20:00,40.0,32.7,30.07,ESE,106,5.0,5.0,75,0.00,,,0.00,VWS V14.01,2013-03-17 01:20:00,
2013-03-16 20:25:00,39.9,32.6,30.07,ESE,106,0.0,5.0,75,0.00,,,0.00,VWS V14.01,2013-03-17 01:25:00,
2013-03-16 20:30:00,39.9,32.6,30.07,ESE,103,1.0,5.0,75,0.00,,,0.00,VWS V14.01,2013-03-17 01:30:00,
2013-03-16 20:35:00,39.9,32.6,30.07,ESE,104,2.0,2.0,75,0.00,,,0.00,VWS V14.01,2013-03-17 01:35:00,
2013-03-16 20:40:00,39.8,32.5,30.07,East,88,1.0,5.0,75,0.00,,,0.00,VWS V14.01,2013-03-17 01:40:00,
2013-03-16 20:45:00,39.8,32.5,30.07,East,86,2.0,5.0,75,0.00,,,0.00,VWS V14.01,2013-03-17 01:45:00,
2013-03-16 20:50:00,39.8,32.5,30.07,East,96,4.0,5.0,75,0.00,,,0.00,VWS V14.01,2013-03-17 01:50:00,
2013-03-16 20:55:00,39.8,32.5,30.08,East,94,0.0,5.0,75,0.00,,,0.00,VWS V14.01,2013-03-17 01:55:00,
2013-03-16 21:00:00,39.8,32.5,30.07,East,96,2.0,5.0,75,0.00,,,0.00,VWS V14.01,2013-03-17 02:00:00,
2013-03-16 21:05:00,39.7,32.4,30.08,East,87,3.0,5.0,75,0.00,,,0.00,VWS V14.01,2013-03-17 02:05:00,
2013-03-16 21:10:00,39.7,32.8,30.08,ENE,66,1.0,5.0,76,0.00,,,0.00,VWS V14.01,2013-03-17 02:10:00,
2013-03-16 21:15:00,39.7,32.4,30.08,ENE,66,2.0,5.0,75,0.00,,,0.00,VWS V14.01,2013-03-17 02:15:00,
2013-03-16 21:20:00,39.7,32.8,30.08,ENE,66,2.0,5.0,76,0.00,,,0.00,VWS V14.01,2013-03-17 02:20:00,
2013-03-16 21:25:00,39.7,32.8,30.08,NE,42,1.0,5.0,76,0.00,,,0.00,VWS V14.01,2013-03-17 02:25:00,
2013-03-16 21:30:00,39.7,32.8,30.08,NE,43,2.0,5.0,76,0.00,,,0.00,VWS V14.01,2013-03-17 02:30:00,
2013-03-16 21:35:00,39.6,32.7,30.09,NE,48,0.0,3.0,76,0.00,,,0.00,VWS V14.01,2013-03-17 02:35:00,
2013-03-16 21:40:00,39.6,32.7,30.09,NE,49,1.0,3.0,76,0.00,,,0.00,VWS V14.01,2013-03-17 02:40:00,
2013-03-16 21:45:00,39.6,32.7,30.09,NE,55,0.0,4.0,76,0.00,,,0.00,VWS V14.01,2013-03-17 02:45:00,
2013-03-16 21:50:00,39.6,32.7,30.08,NE,44,1.0,5.0,76,0.00,,,0.00,VWS V14.01,2013-03-17 02:50:00,
2013-03-16 21:55:00,39.6,32.7,30.08,East,97,4.0,6.0,76,0.00,,,0.00,VWS V14.01,2013-03-17 02:55:00,
2013-03-16 22:00:00,39.5,32.6,30.09,East,93,1.0,6.0,76,0.00,,,0.00,VWS V14.01,2013-03-17 03:00:00,
2013-03-16 22:05:00,39.5,32.9,30.09,East,82,2.0,4.0,77,0.00,,,0.00,VWS V14.01,2013-03-17 03:05:00,
2013-03-16 22:10:00,39.5,32.9,30.09,East,92,1.0,5.0,77,0.00,,,0.00,VWS V14.01,2013-03-17 03:10:00,
2013-03-16 22:15:00,39.5,32.6,30.09,East,84,1.0,5.0,76,0.00,,,0.00,VWS V14.01,2013-03-17 03:15:00,
2013-03-16 22:20:00,39.5,32.6,30.09,East,86,2.0,5.0,76,0.00,,,0.00,VWS V14.01,2013-03-17 03:20:00,
2013-03-16 22:25:00,39.5,32.6,30.08,East,93,0.0,7.0,76,0.00,,,0.00,VWS V14.01,2013-03-17 03:25:00,
2013-03-16 22:30:00,39.4,32.5,30.08,East,88,1.0,1.0,76,0.00,,,0.00,VWS V14.01,2013-03-17 03:30:00,
2013-03-16 22:35:00,39.4,32.5,30.08,East,90,4.0,5.0,76,0.00,,,0.00,VWS V14.01,2013-03-17 03:35:00,
2013-03-16 22:40:00,39.4,32.2,30.08,East,79,1.0,5.0,75,0.00,,,0.00,VWS V14.01,2013-03-17 03:40:00,
2013-03-16 22:45:00,39.3,32.4,30.08,East,80,0.0,5.0,76,0.00,,,0.00,VWS V14.01,2013-03-17 03:45:00,
2013-03-16 22:50:00,39.3,32.4,30.08,East,79,1.0,5.0,76,0.00,,,0.00,VWS V14.01,2013-03-17 03:50:00,
2013-03-16 22:55:00,39.3,32.4,30.08,ENE,75,3.0,7.0,76,0.00,,,0.00,VWS V14.01,2013-03-17 03:55:00,
2013-03-16 23:00:00,39.2,32.3,30.08,East,97,5.0,7.0,76,0.00,,,0.00,VWS V14.01,2013-03-17 04:00:00,
2013-03-16 23:05:00,39.2,32.3,30.08,East,100,4.0,5.0,76,0.00,,,0.00,VWS V14.01,2013-03-17 04:05:00,
2013-03-16 23:10:00,39.1,31.9,30.08,East,99,4.0,5.0,75,0.00,,,0.00,VWS V14.01,2013-03-17 04:10:00,
2013-03-16 23:15:00,39.1,31.9,30.09,ESE,103,1.0,5.0,75,0.00,,,0.00,VWS V14.01,2013-03-17 04:15:00,
2013-03-16 23:20:00,39.0,31.8,30.09,ENE,71,1.0,6.0,75,0.00,,,0.00,VWS V14.01,2013-03-17 04:20:00,
2013-03-16 23:25:00,39.0,31.8,30.09,East,98,1.0,6.0,75,0.00,,,0.00,VWS V14.01,2013-03-17 04:25:00,
2013-03-16 23:30:00,38.9,31.7,30.09,East,95,5.0,6.0,75,0.00,,,0.00,VWS V14.01,2013-03-17 04:30:00,
2013-03-16 23:35:00,38.9,31.3,30.09,East,94,2.0,6.0,74,0.00,,,0.00,VWS V14.01,2013-03-17 04:35:00,
2013-03-16 23:40:00,38.8,31.2,30.10,ENE,62,0.0,6.0,74,0.00,,,0.00,VWS V14.01,2013-03-17 04:40:00,
2013-03-16 23:45:00,38.8,31.2,30.09,East,86,3.0,6.0,74,0.00,,,0.00,VWS V14.01,2013-03-17 04:45:00,
2013-03-16 23:50:00,38.8,31.2,30.10,East,89,1.0,6.0,74,0.00,,,0.00,VWS V14.01,2013-03-17 04:50:00,
2013-03-16 23:55:00,38.7,31.1,30.10,East,87,0.0,6.0,74,0.00,,,0.00,VWS V14.01,2013-03-17 04:55:00,